Terminal Aerodrome Forecast
Issued by NWS Cleveland, OH

Home | Current Version | Previous Version | Graphics & Text | Print | Product List | Glossary On
Versions: 1 2 3 4 5 6 7 8 9 10 11 12 13 14 15 16 17 18 19 20
000
FTUS41 KCLE 041137
TAFCAK
TAF
KCAK 041137Z 0412/0512 20007KT P6SM BKN100
     FM042000 22010KT P6SM -SHRA OVC050
      TEMPO 0420/0422 3SM -TSRA OVC025CB
     FM042200 33007KT 3SM -SHRA BR OVC025
     FM050200 35007KT 3SM BR OVC015=

USA.gov is the U.S. government's official web portal to all federal, state and local government web resources and services.